Startpagina
METAR-TAF:

METAR-TAF

Vliegvelden :

Yap, Yap Island, Micronesië

breedte: 09-29N, lengte: 138-05E, hoogte: 28 m

Actueel weer

Dit bericht is 34 minuten geleden gemaakt, om 01:50 UTC
Wind 5 kt uit variabele richting
Temperatuur 31°C
Vochtigheid 75%
Druk 1010 hPa
Zicht: 19.3 km
Weinig wolken op 2000 ft
Verspreide wolken op 30000 ft

METAR: PTYA 270150Z VRB05KT 12SM FEW020 SCT300 31/26 A2982 RMK SLP100 T03100256

Tijdstip: 12:24 (02:24 UTC)

Verwachting

Dit bericht is 3 uur en het 4 minuten geleden gemaakt, om 23:20 UTC
Verwachting geldig van 27 om 00 UTC tot 27 om 24 UTC
Wind 7 kt uit het oostnoordoosten
Zicht: 10 km
Verspreide wolken op 1600 ft
Verspreide wolken op 30000 ft
buien in de omgeving

TAF: PTYA 262320Z 2700/2724 07007KT P6SM VCSH SCT016 SCT300

Waarnemingen en weersverwachtingen van meer dan 4000 vliegvelden (METAR en TAF).

De beschikbare stations zijn de gele en rode punten op de kaart.

Ga met uw muis naar het station om de naam te zien.

Klik dan om waarnemingen en weersverwachtingen te zien.

kaart wijzigen: klik op de groene knoppen met een zwart kruis om in te zoomen, op de groene knop met een streepje om uit te zoomen of op de groene pijlen voor aangrenzende kaarten.


METAR-TAF: